Terminal Aerodrome Forecast
Issued by NWS

Home | Current Version | Previous Version | Graphics & Text | Print | Product List | Glossary On
Versions: 1 2 3 4 5 6 7 8 9 10 11 12 13 14 15 16 17 18 19 20 21 22 23 24 25 26
000
FTUS43 KGRB 251735
TAFAUW
TAF
KAUW 251735Z 2518/2618 11011KT P6SM SCT012 BKN200
     FM251900 11010G17KT P6SM SCT025 SCT090 BKN200
     FM252100 11009KT 6SM -SHRA SCT035 OVC070
      TEMPO 2522/2602 2SM +TSRA BKN025 OVC040CB
     FM260400 15005KT 3SM BR BKN005 BKN010
     FM261500 22008KT P6SM BKN018=

USA.gov is the U.S. government's official web portal to all federal, state and local government web resources and services.